Time;durP1;ratioP1;P1;durP2;ratioP2;P2;SDS_P1;SDS_P2;PMS_P1;PMS_P2;Temp;Humidity;BMP_temperature;BMP_pressure;BME280_temperature;BME280_humidity;BME280_pressure;Samples;Min_cycle;Max_cycle;Signal;HPM_P1;HPM_P2
2023/05/17 00:00:33;;;;;;;30.95;7.13;;;9.10;99.90;;;;;;5038487;28;20033;-62
2023/05/17 00:02:59;;;;;;;29.10;7.00;;;9.00;99.90;;;;;;5034988;28;20125;-62
2023/05/17 00:05:24;;;;;;;25.33;6.90;;;9.00;99.90;;;;;;5070226;28;20145;-62
2023/05/17 00:07:50;;;;;;;24.65;6.65;;;9.00;99.90;;;;;;5069471;28;21205;-62
2023/05/17 00:10:16;;;;;;;20.17;6.30;;;9.00;99.90;;;;;;5068726;28;20463;-62
2023/05/17 00:12:41;;;;;;;22.58;6.35;;;9.00;99.90;;;;;;5033423;28;20037;-62
2023/05/17 00:15:07;;;;;;;19.75;5.78;;;9.10;99.90;;;;;;5039071;28;20094;-61
2023/05/17 00:17:33;;;;;;;20.00;5.57;;;9.10;99.90;;;;;;5038363;28;20045;-62
2023/05/17 00:19:58;;;;;;;21.00;4.88;;;9.10;99.90;;;;;;5034185;28;20126;-62
2023/05/17 00:22:24;;;;;;;18.40;4.35;;;9.20;99.90;;;;;;5033416;28;20050;-61
2023/05/17 00:24:50;;;;;;;19.67;4.75;;;9.20;99.90;;;;;;5037260;28;20046;-62
2023/05/17 00:27:15;;;;;;;17.20;3.55;;;9.30;99.90;;;;;;5037459;28;20132;-61
2023/05/17 00:29:41;;;;;;;20.13;3.97;;;9.30;99.90;;;;;;5039658;28;20041;-62
2023/05/17 00:32:06;;;;;;;16.45;4.70;;;9.30;99.90;;;;;;5038943;28;20559;-62
2023/05/17 00:34:32;;;;;;;16.15;3.65;;;9.20;99.90;;;;;;5029259;28;20601;-61
2023/05/17 00:36:57;;;;;;;17.95;3.70;;;9.20;99.90;;;;;;5039469;28;20037;-62
2023/05/17 00:39:23;;;;;;;22.67;4.10;;;9.10;99.90;;;;;;5037446;28;20037;-62
2023/05/17 00:41:48;;;;;;;16.73;3.67;;;9.00;99.90;;;;;;5035953;28;20029;-61
2023/05/17 00:44:14;;;;;;;14.63;3.58;;;8.90;99.90;;;;;;5036626;28;20037;-61
2023/05/17 00:46:40;;;;;;;12.55;2.42;;;8.80;99.90;;;;;;5042190;28;20448;-63
2023/05/17 00:49:05;;;;;;;20.35;3.88;;;8.70;99.90;;;;;;5030934;28;20560;-62
2023/05/17 00:51:32;;;;;;;16.48;3.15;;;8.70;99.90;;;;;;5039634;28;20033;-61
2023/05/17 00:53:58;;;;;;;19.58;3.60;;;8.60;99.90;;;;;;5035913;28;20052;-62
2023/05/17 00:56:24;;;;;;;22.50;4.60;;;8.50;99.90;;;;;;5071338;28;20447;-62
2023/05/17 00:58:49;;;;;;;24.23;4.30;;;8.40;99.90;;;;;;5035858;28;20052;-62
2023/05/17 01:01:15;;;;;;;22.70;4.70;;;8.30;99.90;;;;;;5032637;28;20037;-61
2023/05/17 01:03:41;;;;;;;20.05;4.00;;;8.20;99.90;;;;;;5035306;28;20059;-62
2023/05/17 01:06:07;;;;;;;22.98;4.10;;;8.10;99.90;;;;;;5067518;28;20128;-61
2023/05/17 01:08:33;;;;;;;20.52;3.90;;;8.00;99.90;;;;;;5037865;28;20561;-61
2023/05/17 01:11:23;;;;;;;19.60;4.25;;;7.90;99.90;;;;;;5039997;28;20086;-62
2023/05/17 01:13:57;;;;;;;20.90;4.32;;;7.90;99.90;;;;;;5042023;28;20132;-61
2023/05/17 01:16:34;;;;;;;17.80;4.10;;;7.80;99.90;;;;;;5076625;28;20076;-61
2023/05/17 01:19:24;;;;;;;25.02;5.07;;;7.70;99.90;;;;;;5038671;28;20064;-62
2023/05/17 01:22:08;;;;;;;23.35;4.07;;;7.70;99.90;;;;;;5073495;28;21399;-61
2023/05/17 01:25:23;;;;;;;24.90;4.32;;;7.70;99.90;;;;;;5043652;28;20044;-62
2023/05/17 01:27:49;;;;;;;19.80;3.50;;;7.60;99.90;;;;;;5041629;28;20077;-62
2023/05/17 01:30:18;;;;;;;22.65;4.30;;;7.60;99.90;;;;;;5042598;28;20045;-61
2023/05/17 01:32:44;;;;;;;22.58;4.35;;;7.60;99.90;;;;;;5046764;28;20033;-61
2023/05/17 01:35:11;;;;;;;18.15;3.85;;;7.50;99.90;;;;;;5074505;28;20037;-61
2023/05/17 01:37:38;;;;;;;24.25;4.57;;;7.50;99.90;;;;;;5069583;28;20407;-60
2023/05/17 01:40:05;;;;;;;23.52;4.38;;;7.50;99.90;;;;;;5042662;28;20044;-61
2023/05/17 01:42:32;;;;;;;25.25;4.38;;;7.40;99.90;;;;;;5060178;28;20523;-61
2023/05/17 01:45:17;;;;;;;20.15;3.88;;;7.40;99.90;;;;;;5077076;28;20124;-61
2023/05/17 01:47:49;;;;;;;21.80;4.10;;;7.40;99.90;;;;;;5046986;28;20036;-62
2023/05/17 01:50:16;;;;;;;;;;;7.40;99.90;;;;;;5042055;28;20412;-61
2023/05/17 01:53:09;;;;;;;22.88;3.50;;;7.30;99.90;;;;;;5044474;28;19923;-61
2023/05/17 01:55:50;;;;;;;23.92;4.15;;;7.20;99.90;;;;;;5043803;28;20053;-61
2023/05/17 01:58:20;;;;;;;20.35;3.80;;;7.20;99.90;;;;;;5045325;28;20041;-61
2023/05/17 02:00:47;;;;;;;32.63;4.30;;;7.20;99.90;;;;;;5044475;28;20047;-61
2023/05/17 02:03:17;;;;;;;18.27;4.03;;;7.20;99.90;;;;;;5074189;28;20195;-61
2023/05/17 02:05:43;;;;;;;23.88;4.18;;;7.10;99.90;;;;;;5044494;28;20462;-61
2023/05/17 02:08:08;;;;;;;22.58;3.92;;;7.10;99.90;;;;;;5070571;28;20041;-61
2023/05/17 02:10:34;;;;;;;22.42;4.72;;;7.10;99.90;;;;;;5042955;28;20091;-61
2023/05/17 02:12:59;;;;;;;23.55;3.95;;;7.00;99.90;;;;;;5042378;28;20056;-62
2023/05/17 02:15:25;;;;;;;25.20;4.82;;;7.00;99.90;;;;;;5043862;28;20044;-61
2023/05/17 02:17:50;;;;;;;18.00;4.13;;;6.90;99.90;;;;;;5041887;28;20060;-61
2023/05/17 02:20:16;;;;;;;21.17;3.95;;;6.90;99.90;;;;;;5042733;28;20049;-61
2023/05/17 02:22:42;;;;;;;22.00;4.28;;;6.90;99.90;;;;;;5042834;28;20095;-61
2023/05/17 02:25:08;;;;;;;26.17;4.88;;;6.80;99.90;;;;;;5038615;28;20094;-62
2023/05/17 02:27:34;;;;;;;23.83;3.90;;;6.80;99.90;;;;;;5057181;28;20048;-61
2023/05/17 02:30:00;;;;;;;27.23;4.55;;;6.80;99.90;;;;;;5041654;28;20045;-61
2023/05/17 02:32:30;;;;;;;19.08;3.95;;;6.70;99.90;;;;;;5040976;28;20052;-61
2023/05/17 02:34:55;;;;;;;20.88;4.00;;;6.70;99.90;;;;;;5039273;28;20067;-61
2023/05/17 02:37:21;;;;;;;28.67;4.10;;;6.70;99.90;;;;;;5040761;28;20399;-62
2023/05/17 02:39:46;;;;;;;25.40;4.15;;;6.70;99.90;;;;;;5046297;28;20037;-61
2023/05/17 02:42:12;;;;;;;21.45;3.92;;;6.70;99.90;;;;;;5043275;28;20045;-62
2023/05/17 02:44:38;;;;;;;17.58;3.80;;;6.80;99.90;;;;;;5072209;28;20037;-62
2023/05/17 02:47:04;;;;;;;26.40;4.28;;;6.70;99.90;;;;;;5044277;28;20090;-61
2023/05/17 02:49:30;;;;;;;23.92;4.70;;;6.80;99.90;;;;;;5040252;28;20725;-62
2023/05/17 02:51:55;;;;;;;22.20;4.07;;;6.80;99.90;;;;;;5040425;28;20041;-62
2023/05/17 02:54:21;;;;;;;20.98;3.60;;;6.80;99.90;;;;;;5040613;28;20033;-62
2023/05/17 02:56:46;;;;;;;23.27;3.75;;;6.90;99.90;;;;;;5041640;28;20033;-62
2023/05/17 02:59:12;;;;;;;23.50;4.20;;;6.90;99.90;;;;;;5041627;28;20033;-62
2023/05/17 03:01:38;;;;;;;21.73;4.38;;;6.90;99.90;;;;;;5037254;28;20040;-62
2023/05/17 03:04:03;;;;;;;26.60;4.38;;;6.90;99.90;;;;;;5037532;28;20094;-61
2023/05/17 03:06:30;;;;;;;23.42;4.20;;;6.90;99.90;;;;;;5035748;28;20053;-62
2023/05/17 03:08:55;;;;;;;29.42;4.40;;;6.90;99.90;;;;;;5040306;28;20078;-61
2023/05/17 03:11:21;;;;;;;22.95;4.45;;;6.90;99.90;;;;;;5042539;28;20037;-62
2023/05/17 03:13:50;;;;;;;24.70;3.83;;;6.90;99.90;;;;;;5069556;28;20041;-61
2023/05/17 03:16:16;;;;;;;24.23;3.83;;;6.90;99.90;;;;;;5032854;28;20047;-62
2023/05/17 03:18:42;;;;;;;22.35;3.90;;;6.90;99.90;;;;;;5038454;28;20048;-61
2023/05/17 03:21:07;;;;;;;22.85;4.25;;;6.90;99.90;;;;;;5034059;28;20091;-61
2023/05/17 03:23:33;;;;;;;28.67;4.18;;;6.90;99.90;;;;;;5036352;28;20076;-61
2023/05/17 03:25:58;;;;;;;21.52;4.13;;;6.90;99.90;;;;;;5039603;28;20039;-62
2023/05/17 03:28:24;;;;;;;24.80;4.05;;;6.90;99.90;;;;;;5033299;28;20511;-61
2023/05/17 03:30:50;;;;;;;23.08;4.13;;;6.90;99.90;;;;;;5039105;28;20369;-62
2023/05/17 03:33:16;;;;;;;25.35;4.65;;;7.00;99.90;;;;;;5039113;28;20638;-61
2023/05/17 03:35:42;;;;;;;23.23;4.70;;;6.90;99.90;;;;;;5039117;28;20065;-61
2023/05/17 03:38:08;;;;;;;23.67;4.72;;;6.90;99.90;;;;;;5036962;28;20075;-62
2023/05/17 03:40:33;;;;;;;20.30;4.03;;;7.00;99.90;;;;;;5041946;28;20053;-62
2023/05/17 03:42:59;;;;;;;31.25;5.15;;;6.90;99.90;;;;;;5034250;28;20041;-61
2023/05/17 03:45:26;;;;;;;23.58;4.75;;;6.90;99.90;;;;;;5040486;28;20503;-61
2023/05/17 03:47:51;;;;;;;24.38;5.10;;;6.90;99.90;;;;;;5041724;28;20045;-62
2023/05/17 03:50:17;;;;;;;28.92;5.60;;;6.90;99.90;;;;;;5042836;28;20427;-61
2023/05/17 03:52:42;;;;;;;18.50;4.15;;;6.90;99.90;;;;;;5035110;28;20041;-62
2023/05/17 03:55:08;;;;;;;31.67;4.80;;;6.80;99.90;;;;;;5039370;28;20041;-62
2023/05/17 03:57:34;;;;;;;26.52;4.88;;;6.80;99.90;;;;;;5068863;28;20040;-61
2023/05/17 03:59:59;;;;;;;22.63;4.28;;;6.80;99.90;;;;;;5037140;28;20106;-62
2023/05/17 04:02:25;;;;;;;27.00;4.85;;;6.80;99.90;;;;;;5036284;28;20044;-62
2023/05/17 04:04:51;;;;;;;32.65;5.10;;;6.80;99.90;;;;;;5036462;28;20416;-62
2023/05/17 04:07:17;;;;;;;18.02;4.20;;;6.80;99.90;;;;;;5037153;28;20064;-62
2023/05/17 04:09:43;;;;;;;27.42;4.30;;;6.80;99.90;;;;;;5070550;28;20048;-62
2023/05/17 04:12:09;;;;;;;22.60;4.40;;;6.90;99.90;;;;;;5035779;28;20394;-62
2023/05/17 04:14:38;;;;;;;22.95;3.70;;;7.00;99.90;;;;;;5039846;28;20131;-62
2023/05/17 04:17:04;;;;;;;28.20;4.18;;;7.00;99.90;;;;;;5037311;28;20499;-62
2023/05/17 04:19:30;;;;;;;19.23;3.85;;;7.10;99.90;;;;;;5039403;28;20049;-61
2023/05/17 04:21:55;;;;;;;23.80;4.45;;;7.10;99.90;;;;;;5035620;28;20040;-62
2023/05/17 04:24:21;;;;;;;17.98;4.20;;;7.20;99.90;;;;;;5036930;28;20064;-62
2023/05/17 04:26:46;;;;;;;22.83;4.10;;;7.20;99.90;;;;;;5034431;28;20125;-62
2023/05/17 04:29:12;;;;;;;30.30;4.55;;;7.30;99.90;;;;;;5038327;28;20056;-62
2023/05/17 04:31:38;;;;;;;22.10;4.80;;;7.30;99.90;;;;;;5036284;28;20100;-62
2023/05/17 04:34:03;;;;;;;19.52;4.18;;;7.40;99.90;;;;;;5033696;28;20041;-62
2023/05/17 04:36:29;;;;;;;27.77;4.00;;;7.50;99.90;;;;;;5039028;28;20045;-62
2023/05/17 04:38:55;;;;;;;22.15;4.55;;;7.50;99.90;;;;;;5035424;28;20051;-62
2023/05/17 04:41:20;;;;;;;18.40;3.90;;;7.50;99.90;;;;;;5036346;28;20052;-62
2023/05/17 04:43:46;;;;;;;26.73;5.18;;;7.60;99.90;;;;;;5035313;28;20064;-62
2023/05/17 04:46:12;;;;;;;30.75;4.70;;;7.60;99.90;;;;;;5036792;28;20040;-62
2023/05/17 04:48:37;;;;;;;18.83;5.15;;;7.70;99.90;;;;;;5038800;28;20468;-62
2023/05/17 04:51:03;;;;;;;21.90;3.50;;;7.70;99.90;;;;;;5033778;28;20036;-62
2023/05/17 04:53:30;;;;;;;21.17;3.63;;;7.70;99.90;;;;;;5031863;28;20041;-62
2023/05/17 04:55:56;;;;;;;15.27;3.15;;;7.70;99.90;;;;;;5044208;28;20094;-62
2023/05/17 04:58:25;;;;;;;18.77;3.55;;;7.80;99.90;;;;;;5037211;28;20045;-62
2023/05/17 05:00:51;;;;;;;19.55;3.13;;;7.80;99.90;;;;;;5040270;28;20052;-62
2023/05/17 05:03:17;;;;;;;22.55;3.83;;;7.90;99.90;;;;;;5041035;28;20037;-61
2023/05/17 05:05:43;;;;;;;23.05;3.60;;;8.00;99.90;;;;;;5040157;28;20135;-62
2023/05/17 05:08:09;;;;;;;17.98;2.85;;;8.10;99.90;;;;;;5037848;28;20047;-63
2023/05/17 05:10:34;;;;;;;25.20;3.83;;;8.20;99.90;;;;;;5035364;28;20130;-62
2023/05/17 05:13:00;;;;;;;14.80;2.42;;;8.20;99.90;;;;;;5039251;28;20041;-63
2023/05/17 05:15:25;;;;;;;16.33;3.25;;;8.30;99.90;;;;;;5072967;28;20100;-62
2023/05/17 05:17:51;;;;;;;16.60;2.80;;;8.30;99.90;;;;;;5040485;28;20491;-62
2023/05/17 05:20:17;;;;;;;16.27;2.97;;;8.30;99.90;;;;;;5046770;28;20253;-62
2023/05/17 05:22:42;;;;;;;17.45;2.53;;;8.30;99.90;;;;;;5076151;28;20493;-63
2023/05/17 05:25:08;;;;;;;13.27;2.70;;;8.20;99.90;;;;;;5038728;28;20036;-62
2023/05/17 05:27:34;;;;;;;15.93;2.63;;;8.20;99.90;;;;;;5070635;28;20048;-61
2023/05/17 05:30:00;;;;;;;15.25;2.65;;;8.20;99.90;;;;;;5037585;28;20052;-62
2023/05/17 05:32:26;;;;;;;20.17;2.95;;;8.20;99.90;;;;;;5038007;28;20044;-63
2023/05/17 05:34:52;;;;;;;17.30;2.80;;;8.10;99.90;;;;;;5071098;28;20538;-61
2023/05/17 05:37:18;;;;;;;12.15;2.65;;;8.10;99.90;;;;;;5038516;28;20045;-62
2023/05/17 05:39:45;;;;;;;13.02;2.33;;;8.10;99.90;;;;;;5046130;28;20484;-62
2023/05/17 05:42:10;;;;;;;14.57;2.10;;;8.10;99.90;;;;;;5044601;28;20127;-61
2023/05/17 05:44:36;;;;;;;20.50;3.75;;;8.10;99.90;;;;;;5071953;28;21004;-62
2023/05/17 05:47:02;;;;;;;13.07;2.42;;;8.10;99.90;;;;;;5034721;28;20095;-62
2023/05/17 05:49:27;;;;;;;11.15;3.00;;;8.20;99.90;;;;;;5033649;28;20147;-62
2023/05/17 05:51:53;;;;;;;16.33;2.72;;;8.20;99.90;;;;;;5039804;28;20048;-61
2023/05/17 05:54:19;;;;;;;14.80;2.28;;;8.30;99.90;;;;;;5036221;28;20045;-62
2023/05/17 05:56:44;;;;;;;15.93;2.80;;;8.40;99.90;;;;;;5046833;28;20515;-62
2023/05/17 05:59:10;;;;;;;15.18;2.47;;;8.50;99.90;;;;;;5039491;28;20037;-61
2023/05/17 06:01:36;;;;;;;15.13;2.70;;;8.60;99.90;;;;;;5044302;28;20424;-61
2023/05/17 06:04:02;;;;;;;13.80;2.90;;;8.70;99.90;;;;;;5040553;28;20037;-61
2023/05/17 06:06:28;;;;;;;11.77;2.40;;;8.80;99.90;;;;;;5045140;28;20819;-62
2023/05/17 06:08:53;;;;;;;17.38;2.85;;;8.90;99.90;;;;;;5039343;28;20048;-62
2023/05/17 06:11:19;;;;;;;16.65;2.42;;;9.00;99.90;;;;;;5043743;28;20090;-62
2023/05/17 06:13:45;;;;;;;9.70;2.10;;;9.20;99.90;;;;;;5078882;28;20036;-61
2023/05/17 06:16:11;;;;;;;15.65;2.72;;;9.20;99.90;;;;;;5045394;28;20487;-61
2023/05/17 06:18:36;;;;;;;11.90;2.50;;;9.30;99.90;;;;;;5043399;28;20081;-61
2023/05/17 06:21:02;;;;;;;16.58;2.53;;;9.40;99.90;;;;;;5046071;28;20037;-62
2023/05/17 06:23:28;;;;;;;12.50;2.20;;;9.40;99.90;;;;;;5042337;28;20037;-62
2023/05/17 06:25:54;;;;;;;16.85;2.30;;;9.50;99.90;;;;;;5074902;28;20037;-62
2023/05/17 06:28:20;;;;;;;14.60;2.28;;;9.50;99.90;;;;;;5032371;28;20049;-62
2023/05/17 06:30:45;;;;;;;8.70;1.98;;;9.70;99.90;;;;;;5044117;28;20091;-62
2023/05/17 06:33:11;;;;;;;14.15;2.08;;;9.80;99.90;;;;;;5045641;28;20221;-62
2023/05/17 06:35:37;;;;;;;9.52;2.63;;;10.00;99.90;;;;;;5077667;28;20452;-62
2023/05/17 06:38:03;;;;;;;14.77;2.83;;;10.10;99.90;;;;;;5037514;28;20503;-62
2023/05/17 06:40:29;;;;;;;11.73;2.20;;;10.10;99.90;;;;;;5044650;28;20037;-62
2023/05/17 06:42:54;;;;;;;17.33;2.78;;;10.30;99.90;;;;;;5047025;28;20048;-62
2023/05/17 06:45:20;;;;;;;13.88;2.45;;;10.40;99.90;;;;;;5049685;28;20043;-61
2023/05/17 06:47:46;;;;;;;10.77;2.00;;;10.40;99.90;;;;;;5045015;28;20041;-62
2023/05/17 06:50:12;;;;;;;12.95;2.22;;;10.40;99.90;;;;;;5045221;28;20090;-62
2023/05/17 06:52:38;;;;;;;16.35;2.45;;;10.50;99.90;;;;;;5040209;28;20496;-62
2023/05/17 06:55:04;;;;;;;13.10;1.90;;;10.70;99.90;;;;;;5041665;28;20052;-63
2023/05/17 06:57:29;;;;;;;14.52;2.35;;;10.70;99.90;;;;;;5044236;28;20041;-61
2023/05/17 06:59:55;;;;;;;16.10;2.38;;;10.60;99.90;;;;;;5046644;28;20475;-62
2023/05/17 07:02:21;;;;;;;13.82;1.75;;;10.50;99.90;;;;;;5044990;28;20111;-63
2023/05/17 07:04:47;;;;;;;9.57;1.92;;;10.50;99.90;;;;;;5046024;28;20040;-62
2023/05/17 07:07:12;;;;;;;12.32;1.92;;;10.40;99.90;;;;;;5046902;28;20546;-63
2023/05/17 07:09:38;;;;;;;13.32;2.20;;;10.40;99.90;;;;;;5047631;28;20049;-62
2023/05/17 07:12:04;;;;;;;9.07;1.70;;;10.30;99.90;;;;;;5043953;28;20387;-62
2023/05/17 07:14:31;;;;;;;15.20;2.80;;;10.30;99.90;;;;;;5042539;28;20476;-63
2023/05/17 07:16:57;;;;;;;10.40;1.90;;;10.20;99.90;;;;;;5039814;28;20045;-62
2023/05/17 07:19:22;;;;;;;13.18;1.85;;;10.30;99.90;;;;;;5039510;28;20083;-62
2023/05/17 07:21:48;;;;;;;13.88;2.38;;;10.40;99.90;;;;;;5041113;28;20037;-62
2023/05/17 07:24:13;;;;;;;11.65;1.80;;;10.60;99.90;;;;;;5043295;28;20664;-62
2023/05/17 07:26:39;;;;;;;14.63;2.22;;;10.90;99.90;;;;;;5042405;28;20074;-62
2023/05/17 07:29:05;;;;;;;10.52;2.40;;;11.10;99.90;;;;;;5041995;28;19935;-63
2023/05/17 07:31:30;;;;;;;12.32;2.95;;;11.20;99.90;;;;;;5046904;28;20464;-63
2023/05/17 07:33:56;;;;;;;16.65;2.50;;;11.40;99.90;;;;;;5040827;28;20033;-62
2023/05/17 07:36:22;;;;;;;17.02;2.45;;;11.50;99.90;;;;;;5041229;28;20033;-63
2023/05/17 07:38:47;;;;;;;14.35;2.30;;;11.50;99.90;;;;;;5034562;28;20310;-62
2023/05/17 07:41:15;;;;;;;15.88;2.60;;;11.60;99.90;;;;;;5041115;28;20677;-62
2023/05/17 07:43:41;;;;;;;15.73;2.40;;;11.80;99.90;;;;;;5045031;28;20052;-63
2023/05/17 07:46:07;;;;;;;14.15;2.13;;;11.70;99.90;;;;;;5048926;28;20045;-63
2023/05/17 07:48:32;;;;;;;7.40;1.60;;;11.70;99.90;;;;;;5042299;28;20420;-63
2023/05/17 07:50:58;;;;;;;19.70;2.80;;;11.60;99.90;;;;;;5044454;28;20033;-62
2023/05/17 07:53:23;;;;;;;14.77;2.38;;;11.70;99.90;;;;;;5047962;28;20087;-63
2023/05/17 07:55:50;;;;;;;18.65;2.55;;;11.60;99.90;;;;;;5079642;28;20071;-62
2023/05/17 07:58:16;;;;;;;11.10;1.95;;;11.50;99.90;;;;;;5032839;28;20047;-62
2023/05/17 08:00:42;;;;;;;15.10;2.42;;;11.40;99.90;;;;;;5045914;28;20041;-63
2023/05/17 08:03:07;;;;;;;39.10;3.80;;;11.20;99.90;;;;;;5045019;28;20529;-62
2023/05/17 08:05:33;;;;;;;14.48;2.60;;;11.30;99.90;;;;;;5076744;28;20107;-63
2023/05/17 08:07:59;;;;;;;17.98;2.78;;;11.40;99.90;;;;;;5066452;28;20040;-63
2023/05/17 08:10:28;;;;;;;17.65;2.45;;;11.50;99.90;;;;;;5041087;28;20097;-63
2023/05/17 08:12:54;;;;;;;11.32;1.92;;;11.70;99.90;;;;;;5048418;28;20513;-64
2023/05/17 08:15:20;;;;;;;10.80;1.73;;;11.70;99.90;;;;;;5040634;28;20048;-63
2023/05/17 08:17:46;;;;;;;9.30;1.70;;;11.40;99.90;;;;;;5047432;28;20127;-63
2023/05/17 08:20:12;;;;;;;14.35;2.17;;;11.20;99.90;;;;;;5046461;28;20124;-62
2023/05/17 08:22:37;;;;;;;13.50;2.10;;;11.00;99.90;;;;;;5046919;28;20116;-62
2023/05/17 08:25:04;;;;;;;16.50;2.90;;;11.10;99.90;;;;;;5042850;28;20045;-62
2023/05/17 08:27:32;;;;;;;13.88;3.08;;;11.30;99.90;;;;;;5045530;28;20049;-62
2023/05/17 08:29:58;;;;;;;13.73;2.25;;;11.60;99.90;;;;;;5036025;28;20037;-63
2023/05/17 08:32:24;;;;;;;12.98;2.13;;;11.90;99.90;;;;;;5047103;28;20037;-62
2023/05/17 08:34:51;;;;;;;21.73;3.20;;;12.00;99.90;;;;;;5036716;28;20044;-63
2023/05/17 08:37:17;;;;;;;8.00;2.00;;;12.00;99.90;;;;;;5039844;28;20396;-63
2023/05/17 08:39:43;;;;;;;9.52;1.65;;;11.90;99.90;;;;;;5046421;28;20044;-63
2023/05/17 08:42:08;;;;;;;13.57;2.35;;;11.70;99.90;;;;;;5047584;28;20441;-62
2023/05/17 08:44:35;;;;;;;14.25;2.28;;;11.50;99.90;;;;;;5043613;28;20480;-62
2023/05/17 08:47:02;;;;;;;15.32;2.03;;;11.40;99.90;;;;;;5075493;28;20066;-63
2023/05/17 08:49:32;;;;;;;10.68;1.85;;;11.50;99.90;;;;;;5045705;28;20424;-62
2023/05/17 08:52:00;;;;;;;16.95;2.70;;;11.70;99.90;;;;;;5042426;28;20041;-64
2023/05/17 08:54:26;;;;;;;13.10;2.45;;;11.90;99.90;;;;;;5043136;28;20040;-64
2023/05/17 08:56:59;;;;;;;13.45;2.25;;;12.00;99.90;;;;;;5045977;28;20078;-63
2023/05/17 08:59:25;;;;;;;;;;;12.30;99.90;;;;;;5046873;28;20259;-62
2023/05/17 09:01:53;;;;;;;13.73;2.50;;;12.50;99.90;;;;;;5045039;28;20015;-62
2023/05/17 09:04:20;;;;;;;18.23;2.35;;;12.40;99.90;;;;;;5050663;28;20047;-63
2023/05/17 09:06:45;;;;;;;16.50;2.85;;;12.40;99.90;;;;;;5072538;28;20079;-61
2023/05/17 09:09:11;;;;;;;13.95;1.92;;;12.50;99.90;;;;;;5042961;28;20041;-62
2023/05/17 09:11:37;;;;;;;14.48;1.85;;;12.70;99.90;;;;;;5046112;28;20091;-62
2023/05/17 09:14:04;;;;;;;14.60;2.05;;;12.80;99.90;;;;;;5045439;28;20033;-64
2023/05/17 09:16:35;;;;;;;16.55;2.47;;;12.90;99.90;;;;;;5078625;28;20123;-64
2023/05/17 09:19:02;;;;;;;17.83;2.70;;;12.90;99.90;;;;;;5043796;28;20424;-64
2023/05/17 09:21:33;;;;;;;16.38;2.88;;;13.10;99.90;;;;;;5021711;28;20119;-64
2023/05/17 09:24:02;;;;;;;15.00;2.05;;;13.20;99.90;;;;;;5041610;28;20124;-63
2023/05/17 09:26:44;;;;;;;16.55;2.70;;;13.50;99.90;;;;;;5036396;28;20041;-64
2023/05/17 09:29:11;;;;;;;13.75;2.50;;;13.60;99.90;;;;;;5050399;28;20044;-62
2023/05/17 09:31:38;;;;;;;13.93;2.53;;;13.50;99.90;;;;;;5045353;28;20045;-64
2023/05/17 09:34:05;;;;;;;15.23;2.80;;;13.20;99.90;;;;;;5078985;28;20033;-62
2023/05/17 09:36:31;;;;;;;15.15;2.85;;;12.90;99.90;;;;;;5045845;28;20041;-62
2023/05/17 09:39:04;;;;;;;15.45;2.90;;;12.70;99.90;;;;;;5047421;28;20043;-62
2023/05/17 09:41:45;;;;;;;20.67;2.63;;;12.50;99.90;;;;;;5053412;28;20094;-62
2023/05/17 09:44:12;;;;;;;22.52;2.70;;;12.50;99.90;;;;;;5047268;28;20040;-63
2023/05/17 09:46:44;;;;;;;16.42;3.17;;;12.40;99.90;;;;;;5045504;28;20041;-63
2023/05/17 09:49:10;;;;;;;16.70;3.20;;;12.50;99.90;;;;;;5049087;28;20056;-63
2023/05/17 09:51:47;;;;;;;22.35;2.97;;;12.70;99.90;;;;;;5039938;28;20044;-63
2023/05/17 09:54:13;;;;;;;18.48;2.75;;;12.70;99.90;;;;;;5050145;28;20103;-62
2023/05/17 09:56:39;;;;;;;15.85;2.63;;;12.70;99.90;;;;;;5038166;28;20049;-62
2023/05/17 09:59:15;;;;;;;14.82;3.40;;;12.60;99.90;;;;;;5039828;28;20067;-62
2023/05/17 10:01:43;;;;;;;17.05;2.97;;;12.50;99.90;;;;;;5044431;28;20047;-61
2023/05/17 10:04:10;;;;;;;17.98;2.70;;;12.40;99.90;;;;;;5080665;28;20395;-63
2023/05/17 10:06:38;;;;;;;19.85;3.33;;;12.20;99.90;;;;;;5045602;28;20119;-61
2023/05/17 10:09:05;;;;;;;15.90;3.05;;;12.20;99.90;;;;;;5046037;28;20525;-63
2023/05/17 10:11:33;;;;;;;14.68;2.78;;;12.50;99.90;;;;;;5046767;28;20075;-63
2023/05/17 10:14:14;;;;;;;21.45;3.33;;;12.60;99.90;;;;;;5045032;28;20039;-62
2023/05/17 10:16:40;;;;;;;21.45;3.33;;;12.60;99.90;;;;;;5046067;28;20045;-64
2023/05/17 10:19:06;;;;;;;18.00;3.28;;;12.60;99.90;;;;;;5047310;28;20512;-63
2023/05/17 10:21:34;;;;;;;17.48;2.92;;;12.50;99.90;;;;;;5039884;28;20076;-65
2023/05/17 10:24:01;;;;;;;18.60;2.95;;;12.50;99.90;;;;;;5048138;28;20029;-64
2023/05/17 10:26:28;;;;;;;18.40;3.28;;;12.50;99.90;;;;;;5077420;28;20049;-63
2023/05/17 10:29:02;;;;;;;19.38;3.22;;;12.60;99.90;;;;;;5076332;28;20049;-64
2023/05/17 10:31:33;;;;;;;14.15;2.88;;;12.60;99.90;;;;;;5079034;28;20107;-65
2023/05/17 10:34:00;;;;;;;18.08;3.00;;;12.90;99.90;;;;;;5049489;28;20037;-63
2023/05/17 10:36:27;;;;;;;16.77;3.15;;;13.10;99.90;;;;;;5040884;28;20044;-64
2023/05/17 10:38:52;;;;;;;29.48;3.60;;;13.30;99.90;;;;;;5063213;28;20087;-61
2023/05/17 10:41:22;;;;;;;14.40;2.85;;;13.30;99.90;;;;;;5047524;28;20401;-63
2023/05/17 10:43:49;;;;;;;12.57;3.00;;;13.10;99.90;;;;;;5042898;28;20037;-62
2023/05/17 10:46:16;;;;;;;24.60;3.42;;;13.00;99.90;;;;;;5043444;28;20041;-62
2023/05/17 10:48:43;;;;;;;20.77;3.30;;;12.80;99.90;;;;;;5047616;28;20052;-63
2023/05/17 10:51:10;;;;;;;18.63;3.28;;;12.70;99.90;;;;;;5043390;28;20060;-62
2023/05/17 10:54:01;;;;;;;16.50;3.45;;;12.80;99.90;;;;;;5045729;28;20049;-62
2023/05/17 10:56:29;;;;;;;19.45;3.38;;;12.80;99.90;;;;;;5036564;28;20431;-64
2023/05/17 10:59:17;;;;;;;20.70;3.70;;;12.70;99.90;;;;;;5047233;28;20075;-62
2023/05/17 11:01:58;;;;;;;16.77;3.20;;;12.70;99.90;;;;;;5074359;28;20052;-63
2023/05/17 11:04:51;;;;;;;15.25;2.90;;;13.10;99.90;;;;;;5046748;28;20389;-63
2023/05/17 11:07:17;;;;;;;;;;;13.30;99.90;;;;;;5035600;28;20046;-62
2023/05/17 11:09:58;;;;;;;12.70;2.92;;;13.30;99.90;;;;;;5073128;28;19952;-62
2023/05/17 11:12:34;;;;;;;11.95;2.42;;;13.30;99.90;;;;;;5039866;28;20220;-62
2023/05/17 11:15:10;;;;;;;19.63;2.95;;;13.30;99.90;;;;;;5046510;28;20500;-63
2023/05/17 11:17:55;;;;;;;17.00;3.10;;;13.20;99.90;;;;;;5046754;28;20037;-62
2023/05/17 11:20:24;;;;;;;12.13;2.50;;;13.10;99.90;;;;;;5047358;28;20430;-62
2023/05/17 11:23:21;;;;;;;12.20;2.35;;;12.90;99.90;;;;;;5036217;28;20045;-62
2023/05/17 11:25:48;;;;;;;21.55;2.80;;;12.90;99.90;;;;;;5027769;28;20542;-64
2023/05/17 11:28:19;;;;;;;14.85;2.70;;;13.10;99.90;;;;;;5043455;28;20041;-63
2023/05/17 11:30:52;;;;;;;12.52;2.67;;;13.30;99.90;;;;;;5035006;28;20033;-63
2023/05/17 11:33:21;;;;;;;14.32;2.92;;;13.30;99.90;;;;;;5043588;28;20434;-61
2023/05/17 11:35:47;;;;;;;17.95;3.13;;;13.40;99.90;;;;;;5036867;28;20477;-63
2023/05/17 11:38:20;;;;;;;11.52;2.90;;;13.40;99.90;;;;;;5066004;28;20094;-63
2023/05/17 11:40:49;;;;;;;16.52;3.10;;;13.30;99.90;;;;;;5031100;28;20174;-64
2023/05/17 11:43:17;;;;;;;12.88;2.15;;;13.40;99.90;;;;;;5038698;28;20466;-63
2023/05/17 11:45:51;;;;;;;8.85;2.10;;;13.30;99.90;;;;;;5070946;28;20465;-63
2023/05/17 11:48:19;;;;;;;14.13;3.03;;;13.20;99.90;;;;;;5044850;28;20103;-63
2023/05/17 11:50:46;;;;;;;14.30;2.33;;;13.10;99.90;;;;;;5070076;28;20041;-65
2023/05/17 11:53:13;;;;;;;16.42;2.95;;;13.20;99.90;;;;;;5033529;28;20219;-64
2023/05/17 11:55:40;;;;;;;16.80;2.95;;;13.30;99.90;;;;;;5079257;28;20044;-63
2023/05/17 11:58:12;;;;;;;10.75;2.55;;;13.50;99.90;;;;;;5034297;28;20041;-62
2023/05/17 12:00:41;;;;;;;10.38;2.83;;;13.50;99.90;;;;;;5069046;28;20063;-63
2023/05/17 12:03:18;;;;;;;14.50;2.38;;;13.30;99.90;;;;;;5037501;28;20486;-62
2023/05/17 12:05:46;;;;;;;14.50;2.90;;;13.00;99.90;;;;;;5041174;28;20081;-63
2023/05/17 12:08:14;;;;;;;11.52;2.30;;;12.80;99.90;;;;;;5034518;28;20063;-63
2023/05/17 12:10:44;;;;;;;11.55;2.75;;;13.00;99.90;;;;;;5040104;28;20049;-63
2023/05/17 12:13:10;;;;;;;12.02;2.03;;;13.20;99.90;;;;;;5041556;28;20071;-62
2023/05/17 12:15:36;;;;;;;12.32;2.17;;;13.30;99.90;;;;;;5045223;28;20124;-63
2023/05/17 12:18:02;;;;;;;12.10;2.53;;;13.10;99.90;;;;;;5045016;28;20048;-62
2023/05/17 12:20:28;;;;;;;12.43;2.22;;;13.00;99.90;;;;;;5041242;28;20633;-63
2023/05/17 12:22:55;;;;;;;13.77;2.63;;;13.00;99.90;;;;;;5039045;28;20053;-64
2023/05/17 12:25:24;;;;;;;12.25;2.55;;;13.00;99.90;;;;;;5044805;28;20614;-63
2023/05/17 12:28:11;;;;;;;13.18;2.38;;;13.10;99.90;;;;;;5043587;28;20049;-63
2023/05/17 12:30:36;;;;;;;20.17;3.03;;;13.10;99.90;;;;;;5046778;28;20111;-64
2023/05/17 12:33:02;;;;;;;9.13;2.25;;;13.20;99.90;;;;;;5043625;28;20523;-63
2023/05/17 12:35:28;;;;;;;13.82;2.72;;;13.40;99.90;;;;;;5041240;28;20155;-63
2023/05/17 12:37:53;;;;;;;12.60;2.85;;;13.50;99.90;;;;;;5044201;28;20059;-63
2023/05/17 12:40:19;;;;;;;11.95;2.75;;;13.50;99.90;;;;;;5037887;28;20029;-61
2023/05/17 12:42:45;;;;;;;10.77;2.42;;;13.60;99.90;;;;;;5047952;28;20041;-63
2023/05/17 12:45:11;;;;;;;20.80;3.40;;;13.70;99.90;;;;;;5048319;28;20033;-63